Terminal Aerodrome Forecast
Issued by NWS

Home | Current Version | Previous Version | Graphics & Text | Print | Product List | Glossary Off
Versions: 1 2 3 4 5 6 7 8 9 10 11 12 13 14 15 16 17 18 19 20

000
FTUS42 KMHX 190553
TAFPGV
TAF
KPGV 190553Z 1906/2006 00000KT P6SM SCT090
     FM190900 00000KT 3SM BR BKN004
     FM191200 08010KT P6SM VCSH SCT020 BKN050
     FM191700 14010KT 4SM -SHRA OVC025
     FM192200 14012KT 3SM SHRA OVC007
      AMD LTD TO CLD VIS AND WIND=

USA.gov is the U.S. government's official web portal to all federal, state and local government web resources and services.